RYR324 EGCC-EGKK
Flight info
| Callsign | RYR324 |
|---|---|
| Flight time | 0h 37m |
| Altitude | 19000 |
| Route | LISTO L612 HON N859 KIDLI |
| Aircraft | B38M/M-SDE1FGHILORVWXY/HB1 |
Departure
| Time | 2026-05-06 19:31 |
|---|---|
| Airport | Manchester Airport (EGCC) |
Arrival
| Time | 2026-05-06 20:09 |
|---|---|
| Airport | London Gatwick Airport (EGKK) |
| Time | Latitude | Longitude | Altitude | Speed | Heading |
|---|---|---|---|---|---|
| 2026-05-06 19:19 | 53.36118 | -2.26747 | 237 ft | 0 kts | 316° |
| 2026-05-06 19:22 | 53.36115 | -2.26743 | 238 ft | 2 kts | 315° |
| 2026-05-06 19:22 | 53.36104 | -2.26723 | 238 ft | 2 kts | 312° |
| 2026-05-06 19:23 | 53.36094 | -2.26702 | 235 ft | 2 kts | 307° |
| 2026-05-06 19:23 | 53.36084 | -2.26679 | 238 ft | 2 kts | 297° |
| 2026-05-06 19:23 | 53.36078 | -2.26653 | 237 ft | 2 kts | 278° |
| 2026-05-06 19:23 | 53.36079 | -2.26626 | 236 ft | 2 kts | 248° |
| 2026-05-06 19:24 | 53.36084 | -2.26610 | 236 ft | 2 kts | 239° |
| 2026-05-06 19:24 | 53.36088 | -2.26598 | 235 ft | 0 kts | 240° |
| 2026-05-06 19:24 | 53.36089 | -2.26598 | 234 ft | 0 kts | 240° |
| 2026-05-06 19:24 | 53.36088 | -2.26598 | 234 ft | 1 kts | 240° |
| 2026-05-06 19:25 | 53.36066 | -2.26662 | 235 ft | 12 kts | 238° |
| 2026-05-06 19:25 | 53.36011 | -2.26779 | 236 ft | 13 kts | 231° |
| 2026-05-06 19:25 | 53.35930 | -2.26835 | 236 ft | 13 kts | 176° |
| 2026-05-06 19:25 | 53.35861 | -2.26921 | 237 ft | 17 kts | 235° |
| 2026-05-06 19:26 | 53.35793 | -2.27096 | 240 ft | 24 kts | 230° |
| 2026-05-06 19:26 | 53.35676 | -2.27339 | 243 ft | 28 kts | 230° |
| 2026-05-06 19:26 | 53.35581 | -2.27530 | 247 ft | 19 kts | 232° |
| 2026-05-06 19:26 | 53.35492 | -2.27720 | 249 ft | 19 kts | 231° |
| 2026-05-06 19:27 | 53.35459 | -2.27875 | 252 ft | 14 kts | 264° |
| 2026-05-06 19:27 | 53.35393 | -2.28023 | 253 ft | 19 kts | 225° |
| 2026-05-06 19:27 | 53.35286 | -2.28198 | 255 ft | 25 kts | 225° |
| 2026-05-06 19:27 | 53.35171 | -2.28424 | 258 ft | 23 kts | 230° |
| 2026-05-06 19:28 | 53.35069 | -2.28635 | 260 ft | 26 kts | 230° |
| 2026-05-06 19:28 | 53.34956 | -2.28843 | 262 ft | 22 kts | 227° |
| 2026-05-06 19:28 | 53.34869 | -2.28998 | 264 ft | 19 kts | 228° |
| 2026-05-06 19:28 | 53.34775 | -2.29179 | 266 ft | 22 kts | 231° |
| 2026-05-06 19:29 | 53.34687 | -2.29324 | 268 ft | 9 kts | 207° |
| 2026-05-06 19:29 | 53.34660 | -2.29335 | 269 ft | 5 kts | 184° |
| 2026-05-06 19:29 | 53.34641 | -2.29335 | 269 ft | 5 kts | 181° |
| 2026-05-06 19:29 | 53.34586 | -2.29328 | 271 ft | 9 kts | 166° |
| 2026-05-06 19:30 | 53.34547 | -2.29291 | 272 ft | 6 kts | 139° |
| 2026-05-06 19:30 | 53.34541 | -2.29222 | 271 ft | 8 kts | 63° |
| 2026-05-06 19:30 | 53.34583 | -2.29135 | 269 ft | 21 kts | 50° |
| 2026-05-06 19:30 | 53.34843 | -2.28599 | 264 ft | 97 kts | 52° |
| 2026-05-06 19:31 | 53.35387 | -2.27421 | 264 ft | 153 kts | 52° |
| 2026-05-06 19:31 | 53.36165 | -2.25948 | 494 ft | 179 kts | 46° |
| 2026-05-06 19:31 | 53.37641 | -2.22631 | 1814 ft | 174 kts | 67° |
| 2026-05-06 19:32 | 53.38036 | -2.20732 | 2213 ft | 175 kts | 76° |
| 2026-05-06 19:32 | 53.37795 | -2.18869 | 2343 ft | 163 kts | 127° |
| 2026-05-06 19:32 | 53.36976 | -2.17637 | 2845 ft | 157 kts | 153° |
| 2026-05-06 19:32 | 53.35861 | -2.17106 | 3202 ft | 178 kts | 167° |
| 2026-05-06 19:33 | 53.34583 | -2.16717 | 3568 ft | 196 kts | 175° |
| 2026-05-06 19:33 | 53.33160 | -2.16887 | 3983 ft | 213 kts | 185° |
| 2026-05-06 19:33 | 53.31631 | -2.17179 | 4404 ft | 227 kts | 186° |
| 2026-05-06 19:33 | 53.30057 | -2.17444 | 4815 ft | 229 kts | 186° |
| 2026-05-06 19:34 | 53.28458 | -2.17691 | 5216 ft | 233 kts | 187° |
| 2026-05-06 19:34 | 53.26836 | -2.17943 | 5597 ft | 236 kts | 187° |
| 2026-05-06 19:34 | 53.25160 | -2.18210 | 6066 ft | 248 kts | 188° |
| 2026-05-06 19:34 | 53.23383 | -2.18493 | 6600 ft | 265 kts | 187° |
| 2026-05-06 19:35 | 53.21503 | -2.18790 | 7432 ft | 276 kts | 187° |
| 2026-05-06 19:35 | 53.20226 | -2.18990 | 8079 ft | 280 kts | 187° |
| 2026-05-06 19:35 | 53.18267 | -2.19295 | 9088 ft | 286 kts | 187° |
| 2026-05-06 19:35 | 53.15542 | -2.19711 | 9986 ft | 313 kts | 185° |
| 2026-05-06 19:36 | 53.13267 | -2.19224 | 10134 ft | 351 kts | 162° |
| 2026-05-06 19:36 | 53.11692 | -2.18221 | 10532 ft | 364 kts | 158° |
| 2026-05-06 19:36 | 53.09348 | -2.16487 | 11391 ft | 373 kts | 156° |
| 2026-05-06 19:36 | 53.06152 | -2.14177 | 12582 ft | 382 kts | 159° |
| 2026-05-06 19:37 | 53.04512 | -2.13078 | 13154 ft | 386 kts | 159° |
| 2026-05-06 19:37 | 53.02004 | -2.11402 | 13995 ft | 392 kts | 159° |
| 2026-05-06 19:37 | 52.99475 | -2.09653 | 14734 ft | 396 kts | 158° |
| 2026-05-06 19:37 | 52.96919 | -2.07865 | 15455 ft | 400 kts | 158° |
| 2026-05-06 19:38 | 52.94333 | -2.06084 | 16185 ft | 404 kts | 159° |
| 2026-05-06 19:38 | 52.91717 | -2.04302 | 16918 ft | 408 kts | 159° |
| 2026-05-06 19:38 | 52.89087 | -2.02503 | 17644 ft | 412 kts | 159° |
| 2026-05-06 19:38 | 52.86428 | -2.00676 | 18339 ft | 415 kts | 159° |
| 2026-05-06 19:39 | 52.83749 | -1.98840 | 18842 ft | 417 kts | 159° |
| 2026-05-06 19:39 | 52.81057 | -1.97004 | 19027 ft | 419 kts | 159° |
| 2026-05-06 19:39 | 52.78371 | -1.95174 | 19020 ft | 417 kts | 159° |
| 2026-05-06 19:39 | 52.75695 | -1.93351 | 19029 ft | 416 kts | 159° |
| 2026-05-06 19:40 | 52.73015 | -1.91527 | 19029 ft | 417 kts | 159° |
| 2026-05-06 19:40 | 52.70324 | -1.89699 | 19027 ft | 417 kts | 159° |
| 2026-05-06 19:40 | 52.67640 | -1.87879 | 19016 ft | 417 kts | 159° |
| 2026-05-06 19:40 | 52.64955 | -1.86059 | 19028 ft | 417 kts | 159° |
| 2026-05-06 19:41 | 52.62273 | -1.84245 | 19030 ft | 417 kts | 159° |
| 2026-05-06 19:41 | 52.59590 | -1.82432 | 19031 ft | 417 kts | 159° |
| 2026-05-06 19:41 | 52.56903 | -1.80619 | 19036 ft | 417 kts | 159° |
| 2026-05-06 19:41 | 52.54216 | -1.78808 | 19045 ft | 417 kts | 159° |
| 2026-05-06 19:42 | 52.51565 | -1.77023 | 19038 ft | 417 kts | 159° |
| 2026-05-06 19:42 | 52.48879 | -1.75218 | 19045 ft | 417 kts | 159° |
| 2026-05-06 19:42 | 52.46191 | -1.73414 | 19046 ft | 417 kts | 159° |
| 2026-05-06 19:42 | 52.43507 | -1.71614 | 19044 ft | 417 kts | 159° |
| 2026-05-06 19:43 | 52.40827 | -1.69820 | 19044 ft | 417 kts | 159° |
| 2026-05-06 19:43 | 52.38141 | -1.68024 | 19046 ft | 417 kts | 159° |
| 2026-05-06 19:43 | 52.35444 | -1.66294 | 19040 ft | 416 kts | 163° |
| 2026-05-06 19:43 | 52.32671 | -1.64853 | 19040 ft | 422 kts | 163° |
| 2026-05-06 19:44 | 52.29885 | -1.63345 | 19043 ft | 421 kts | 163° |
| 2026-05-06 19:44 | 52.27105 | -1.61871 | 19038 ft | 421 kts | 163° |
| 2026-05-06 19:44 | 52.24309 | -1.60436 | 19038 ft | 420 kts | 163° |
| 2026-05-06 19:44 | 52.21518 | -1.58999 | 19040 ft | 420 kts | 163° |
| 2026-05-06 19:45 | 52.18738 | -1.57545 | 19038 ft | 420 kts | 163° |
| 2026-05-06 19:45 | 52.15948 | -1.56086 | 19041 ft | 420 kts | 163° |
| 2026-05-06 19:45 | 52.13163 | -1.54645 | 19040 ft | 420 kts | 163° |
| 2026-05-06 19:45 | 52.10377 | -1.53207 | 19041 ft | 420 kts | 163° |
| 2026-05-06 19:46 | 52.07591 | -1.51766 | 19038 ft | 420 kts | 163° |
| 2026-05-06 19:46 | 52.04801 | -1.50322 | 19036 ft | 420 kts | 163° |
| 2026-05-06 19:46 | 52.02013 | -1.48884 | 19017 ft | 420 kts | 163° |
| 2026-05-06 19:46 | 51.99261 | -1.47467 | 19017 ft | 420 kts | 163° |
| 2026-05-06 19:47 | 51.96474 | -1.46034 | 18846 ft | 424 kts | 163° |
| 2026-05-06 19:47 | 51.93618 | -1.44567 | 18305 ft | 438 kts | 163° |
| 2026-05-06 19:47 | 51.90663 | -1.43051 | 17686 ft | 451 kts | 163° |
| 2026-05-06 19:47 | 51.87642 | -1.41503 | 17082 ft | 458 kts | 163° |
| 2026-05-06 19:48 | 51.84595 | -1.39944 | 16468 ft | 456 kts | 163° |
| 2026-05-06 19:48 | 51.81614 | -1.38420 | 15873 ft | 442 kts | 163° |
| 2026-05-06 19:48 | 51.78717 | -1.36941 | 15299 ft | 430 kts | 163° |
| 2026-05-06 19:48 | 51.76037 | -1.35029 | 15032 ft | 413 kts | 150° |
| 2026-05-06 19:49 | 51.73661 | -1.32628 | 15015 ft | 393 kts | 147° |
| 2026-05-06 19:49 | 51.71447 | -1.30197 | 15014 ft | 386 kts | 146° |
| 2026-05-06 19:49 | 51.69224 | -1.27818 | 15008 ft | 381 kts | 148° |
| 2026-05-06 19:49 | 51.67002 | -1.25551 | 15011 ft | 376 kts | 148° |
| 2026-05-06 19:50 | 51.64802 | -1.23300 | 15014 ft | 372 kts | 148° |
| 2026-05-06 19:50 | 51.62649 | -1.21050 | 15013 ft | 368 kts | 147° |
| 2026-05-06 19:50 | 51.60460 | -1.18760 | 15038 ft | 388 kts | 148° |
| 2026-05-06 19:50 | 51.58102 | -1.16320 | 15037 ft | 416 kts | 148° |
| 2026-05-06 19:51 | 51.55629 | -1.13771 | 15038 ft | 426 kts | 148° |
| 2026-05-06 19:51 | 51.53098 | -1.11156 | 15026 ft | 429 kts | 148° |
| 2026-05-06 19:51 | 51.50648 | -1.08619 | 15028 ft | 408 kts | 148° |
| 2026-05-06 19:51 | 51.48276 | -1.06173 | 15020 ft | 405 kts | 148° |
| 2026-05-06 19:52 | 51.45914 | -1.03746 | 15012 ft | 403 kts | 148° |
| 2026-05-06 19:52 | 51.43549 | -1.01316 | 15016 ft | 403 kts | 148° |
| 2026-05-06 19:52 | 51.41194 | -0.98895 | 15009 ft | 402 kts | 148° |
| 2026-05-06 19:52 | 51.38836 | -0.96477 | 15014 ft | 402 kts | 148° |
| 2026-05-06 19:53 | 51.36473 | -0.94057 | 15010 ft | 402 kts | 148° |
| 2026-05-06 19:53 | 51.34117 | -0.91648 | 15002 ft | 402 kts | 148° |
| 2026-05-06 19:53 | 51.31756 | -0.89234 | 15020 ft | 402 kts | 148° |
| 2026-05-06 19:53 | 51.29400 | -0.86830 | 15024 ft | 402 kts | 148° |
| 2026-05-06 19:54 | 51.27074 | -0.84457 | 15022 ft | 402 kts | 148° |
| 2026-05-06 19:54 | 51.24719 | -0.82060 | 15022 ft | 401 kts | 148° |
| 2026-05-06 19:54 | 51.22360 | -0.79664 | 15024 ft | 401 kts | 148° |
| 2026-05-06 19:54 | 51.20004 | -0.77273 | 15024 ft | 401 kts | 148° |
| 2026-05-06 19:55 | 51.17650 | -0.74883 | 15016 ft | 401 kts | 148° |
| 2026-05-06 19:55 | 51.15290 | -0.72492 | 15021 ft | 401 kts | 148° |
| 2026-05-06 19:55 | 51.12934 | -0.70110 | 15015 ft | 401 kts | 148° |
| 2026-05-06 19:55 | 51.10574 | -0.67725 | 15017 ft | 401 kts | 148° |
| 2026-05-06 19:56 | 51.08215 | -0.65344 | 14717 ft | 400 kts | 148° |
| 2026-05-06 19:56 | 51.05918 | -0.62923 | 14189 ft | 393 kts | 140° |
| 2026-05-06 19:56 | 51.04193 | -0.59640 | 13673 ft | 386 kts | 121° |
| 2026-05-06 19:56 | 51.03009 | -0.55853 | 13141 ft | 379 kts | 112° |
| 2026-05-06 19:57 | 51.02042 | -0.51999 | 12638 ft | 373 kts | 111° |
| 2026-05-06 19:57 | 51.01031 | -0.48252 | 12145 ft | 367 kts | 115° |
| 2026-05-06 19:57 | 50.99859 | -0.44677 | 11635 ft | 362 kts | 118° |
| 2026-05-06 19:57 | 50.98668 | -0.41157 | 11171 ft | 366 kts | 117° |
| 2026-05-06 19:58 | 50.97551 | -0.37597 | 10676 ft | 348 kts | 115° |
| 2026-05-06 19:58 | 50.96528 | -0.34242 | 10173 ft | 328 kts | 115° |
| 2026-05-06 19:58 | 50.95535 | -0.31083 | 9674 ft | 313 kts | 116° |
| 2026-05-06 19:58 | 50.94568 | -0.28065 | 9125 ft | 302 kts | 116° |
| 2026-05-06 19:59 | 50.93690 | -0.25115 | 8597 ft | 290 kts | 103° |
| 2026-05-06 19:59 | 50.93670 | -0.22068 | 8116 ft | 268 kts | 69° |
| 2026-05-06 19:59 | 50.94664 | -0.19764 | 7657 ft | 248 kts | 32° |
| 2026-05-06 19:59 | 50.96184 | -0.18880 | 7191 ft | 232 kts | 358° |
| 2026-05-06 20:00 | 50.97688 | -0.19628 | 6802 ft | 234 kts | 319° |
| 2026-05-06 20:00 | 50.98569 | -0.21804 | 6418 ft | 241 kts | 286° |
| 2026-05-06 20:00 | 50.98881 | -0.24462 | 5977 ft | 249 kts | 278° |
| 2026-05-06 20:00 | 50.99060 | -0.27235 | 5525 ft | 256 kts | 277° |
| 2026-05-06 20:01 | 50.99208 | -0.30081 | 5112 ft | 260 kts | 276° |
| 2026-05-06 20:01 | 50.99344 | -0.32840 | 4983 ft | 237 kts | 275° |
| 2026-05-06 20:01 | 50.99469 | -0.35425 | 4991 ft | 234 kts | 276° |
| 2026-05-06 20:01 | 50.99599 | -0.38001 | 4983 ft | 234 kts | 276° |
| 2026-05-06 20:02 | 50.99730 | -0.40569 | 4782 ft | 237 kts | 276° |
| 2026-05-06 20:02 | 50.99908 | -0.43220 | 4295 ft | 245 kts | 288° |
| 2026-05-06 20:02 | 51.00845 | -0.45339 | 3994 ft | 226 kts | 328° |
| 2026-05-06 20:02 | 51.02138 | -0.46370 | 3987 ft | 188 kts | 339° |
| 2026-05-06 20:03 | 51.03328 | -0.47062 | 4009 ft | 186 kts | 341° |
| 2026-05-06 20:03 | 51.04526 | -0.47731 | 4002 ft | 179 kts | 341° |
| 2026-05-06 20:03 | 51.05722 | -0.48394 | 4003 ft | 182 kts | 341° |
| 2026-05-06 20:03 | 51.06923 | -0.49065 | 3644 ft | 181 kts | 341° |
| 2026-05-06 20:04 | 51.08114 | -0.49680 | 3258 ft | 180 kts | 352° |
| 2026-05-06 20:04 | 51.09346 | -0.49619 | 2985 ft | 175 kts | 12° |
| 2026-05-06 20:04 | 51.10414 | -0.48677 | 2996 ft | 181 kts | 44° |
| 2026-05-06 20:04 | 51.10989 | -0.46970 | 2986 ft | 170 kts | 74° |
| 2026-05-06 20:05 | 51.11237 | -0.45197 | 2977 ft | 160 kts | 75° |
| 2026-05-06 20:05 | 51.11469 | -0.43502 | 2984 ft | 157 kts | 75° |
| 2026-05-06 20:05 | 51.11702 | -0.41802 | 2914 ft | 157 kts | 75° |
| 2026-05-06 20:05 | 51.11942 | -0.40056 | 2716 ft | 165 kts | 75° |
| 2026-05-06 20:06 | 51.12185 | -0.38287 | 2498 ft | 164 kts | 75° |
| 2026-05-06 20:06 | 51.12425 | -0.36532 | 2278 ft | 162 kts | 75° |
| 2026-05-06 20:06 | 51.12661 | -0.34781 | 2051 ft | 158 kts | 75° |
| 2026-05-06 20:06 | 51.12878 | -0.33166 | 1846 ft | 146 kts | 74° |
| 2026-05-06 20:07 | 51.13098 | -0.31567 | 1641 ft | 147 kts | 74° |
| 2026-05-06 20:07 | 51.13316 | -0.29977 | 1434 ft | 146 kts | 75° |
| 2026-05-06 20:07 | 51.13531 | -0.28402 | 1227 ft | 143 kts | 75° |
| 2026-05-06 20:07 | 51.13740 | -0.26874 | 1032 ft | 141 kts | 75° |
| 2026-05-06 20:08 | 51.13947 | -0.25365 | 838 ft | 137 kts | 75° |
| 2026-05-06 20:08 | 51.14153 | -0.23864 | 647 ft | 139 kts | 76° |
| 2026-05-06 20:08 | 51.14359 | -0.22362 | 456 ft | 140 kts | 77° |
| 2026-05-06 20:08 | 51.14561 | -0.20864 | 275 ft | 137 kts | 79° |
| 2026-05-06 20:09 | 51.14746 | -0.19503 | 213 ft | 107 kts | 79° |
| 2026-05-06 20:09 | 51.14862 | -0.18691 | 207 ft | 44 kts | 69° |
| 2026-05-06 20:09 | 51.14986 | -0.18433 | 211 ft | 18 kts | 51° |
| 2026-05-06 20:09 | 51.15031 | -0.18340 | 214 ft | 4 kts | 52° |
| 2026-05-06 20:10 | 51.15039 | -0.18323 | 209 ft | 2 kts | 52° |
| 2026-05-06 20:10 | 51.15058 | -0.18283 | 205 ft | 7 kts | 53° |
| 2026-05-06 20:10 | 51.15096 | -0.18212 | 206 ft | 11 kts | 41° |
| 2026-05-06 20:10 | 51.15138 | -0.18193 | 206 ft | 0 kts | 355° |
| 2026-05-06 20:11 | 51.15141 | -0.18193 | 206 ft | 0 kts | 354° |
| 2026-05-06 20:12 | 51.15189 | -0.18175 | 216 ft | 9 kts | 44° |
| 2026-05-06 20:12 | 51.15221 | -0.18044 | 212 ft | 14 kts | 81° |
| 2026-05-06 20:13 | 51.15239 | -0.17897 | 213 ft | 14 kts | 77° |
| 2026-05-06 20:13 | 51.15227 | -0.17789 | 213 ft | 7 kts | 139° |
| 2026-05-06 20:13 | 51.15185 | -0.17702 | 209 ft | 14 kts | 92° |
| 2026-05-06 20:13 | 51.15203 | -0.17553 | 211 ft | 12 kts | 77° |
| 2026-05-06 20:14 | 51.15218 | -0.17445 | 214 ft | 11 kts | 77° |
| 2026-05-06 20:14 | 51.15234 | -0.17327 | 212 ft | 12 kts | 77° |
| 2026-05-06 20:14 | 51.15257 | -0.17161 | 208 ft | 15 kts | 77° |
| 2026-05-06 20:14 | 51.15284 | -0.16968 | 203 ft | 20 kts | 78° |
| 2026-05-06 20:15 | 51.15305 | -0.16805 | 214 ft | 11 kts | 79° |
| 2026-05-06 20:15 | 51.15341 | -0.16673 | 212 ft | 10 kts | 56° |
| 2026-05-06 20:15 | 51.15363 | -0.16551 | 211 ft | 10 kts | 79° |
| 2026-05-06 20:15 | 51.15387 | -0.16480 | 209 ft | 8 kts | 62° |
| 2026-05-06 20:16 | 51.15398 | -0.16426 | 209 ft | 1 kts | 76° |
| 2026-05-06 20:16 | 51.15399 | -0.16412 | 206 ft | 0 kts | 79° |